Time;durP1;ratioP1;P1;durP2;ratioP2;P2;SDS_P1;SDS_P2;PMS_P1;PMS_P2;Temp;Humidity;BMP_temperature;BMP_pressure;BME280_temperature;BME280_humidity;BME280_pressure;Samples;Min_cycle;Max_cycle;Signal;HPM_P1;HPM_P2
2021/12/15 00:18:08;;;;;;;108.83;52.77;;;;;;;;;;4838228;29;20552;-81
2021/12/15 00:26:46;;;;;;;105.97;52.27;;;;;;;;;;4844851;29;20042;-83
2021/12/15 00:30:22;;;;;;;88.47;47.47;;;;;;;;;;4837542;29;20052;-82
2021/12/15 00:34:15;;;;;;;93.10;47.33;;;;;;;;;;4860540;29;20053;-81
2021/12/15 00:37:45;;;;;;;83.00;40.77;;;;;;;;;;4865353;29;20056;-83
2021/12/15 00:46:10;;;;;;;88.60;43.42;;;;;;;;;;4845399;29;20046;-84
2021/12/15 00:49:31;;;;;;;80.20;44.53;;;;;;;;;;4858332;29;20064;-81
2021/12/15 01:07:06;;;;;;;107.87;50.87;;;;;;;;;;4860183;29;20049;-81
2021/12/15 01:28:49;;;;;;;105.70;51.23;;;;;;;;;;4848384;29;20046;-82
2021/12/15 01:36:28;;;;;;;114.00;53.20;;;;;;;;;;4846740;29;20054;-82
2021/12/15 01:51:47;;;;;;;137.83;56.43;;;;;;;;;;4779127;30;20103;-80
2021/12/15 01:55:08;;;;;;;130.05;53.95;;;;;;;;;;4810312;29;20062;-80
2021/12/15 01:58:23;;;;;;;116.70;53.23;;;;;;;;;;4801867;29;20059;-80
2021/12/15 02:02:14;;;;;;;125.57;56.33;;;;;;;;;;4807182;29;20057;-80
2021/12/15 02:05:39;;;;;;;136.57;57.03;;;;;;;;;;4791164;29;20045;-82
2021/12/15 02:13:23;;;;;;;131.33;54.50;;;;;;;;;;4846249;29;20038;-81
2021/12/15 02:21:41;;;;;;;116.87;53.60;;;;;;;;;;4825799;29;20061;-81
2021/12/15 02:25:24;;;;;;;100.63;47.13;;;;;;;;;;4857942;29;20050;-81
2021/12/15 02:29:04;;;;;;;110.03;54.43;;;;;;;;;;4846875;29;20058;-83
2021/12/15 02:33:23;;;;;;;107.70;49.80;;;;;;;;;;4837994;29;20058;-81
2021/12/15 02:40:32;;;;;;;100.00;46.80;;;;;;;;;;4843132;29;20054;-81
2021/12/15 02:44:12;;;;;;;93.90;40.78;;;;;;;;;;4817865;29;20057;-80
2021/12/15 02:47:25;;;;;;;102.17;45.90;;;;;;;;;;4819438;29;20394;-80
2021/12/15 02:54:51;;;;;;;96.80;41.50;;;;;;;;;;4842555;29;20058;-81
2021/12/15 02:58:20;;;;;;;68.07;36.87;;;;;;;;;;4846321;29;20058;-81
2021/12/15 03:02:11;;;;;;;78.23;33.90;;;;;;;;;;4841393;29;20057;-82
2021/12/15 03:05:29;;;;;;;104.50;45.30;;;;;;;;;;4833025;29;20539;-80
2021/12/15 03:21:27;;;;;;;65.63;32.93;;;;;;;;;;4836284;29;20069;-80
2021/12/15 03:25:14;;;;;;;63.27;31.07;;;;;;;;;;4825867;29;20075;-80
2021/12/15 03:36:39;;;;;;;46.80;20.97;;;;;;;;;;4837891;29;20042;-81
2021/12/15 03:39:52;;;;;;;49.30;22.83;;;;;;;;;;4804467;29;20050;-81
2021/12/15 03:43:24;;;;;;;47.20;23.38;;;;;;;;;;4856978;29;20052;-81
2021/12/15 03:46:36;;;;;;;53.57;24.37;;;;;;;;;;4829294;29;20054;-81
2021/12/15 03:49:45;;;;;;;47.73;23.57;;;;;;;;;;4824770;29;20150;-79
2021/12/15 03:52:54;;;;;;;26.13;12.20;;;;;;;;;;4821289;29;20054;-78
2021/12/15 03:56:02;;;;;;;50.30;24.30;;;;;;;;;;4841787;29;20050;-78
2021/12/15 03:59:14;;;;;;;50.63;25.77;;;;;;;;;;4829360;29;20050;-78
2021/12/15 04:02:22;;;;;;;56.80;27.20;;;;;;;;;;4833883;29;20058;-78
2021/12/15 04:05:28;;;;;;;47.27;22.47;;;;;;;;;;4838371;29;20053;-80
2021/12/15 04:08:37;;;;;;;34.47;17.50;;;;;;;;;;4846231;29;20046;-79
2021/12/15 04:11:43;;;;;;;36.47;18.30;;;;;;;;;;4820089;29;20057;-77
2021/12/15 04:15:06;;;;;;;36.10;17.10;;;;;;;;;;4840628;29;20061;-79
2021/12/15 04:18:12;;;;;;;19.30;7.73;;;;;;;;;;4834196;29;20475;-77
2021/12/15 04:21:17;;;;;;;54.27;23.40;;;;;;;;;;4822563;29;20503;-77
2021/12/15 04:24:26;;;;;;;50.77;23.20;;;;;;;;;;4836108;29;20132;-80
2021/12/15 04:27:33;;;;;;;32.50;14.80;;;;;;;;;;4807754;29;20065;-79
2021/12/15 04:30:48;;;;;;;48.60;25.70;;;;;;;;;;4811648;29;20062;-78
2021/12/15 04:34:02;;;;;;;45.43;22.50;;;;;;;;;;4810991;29;20065;-78
2021/12/15 04:37:11;;;;;;;33.57;14.73;;;;;;;;;;4822201;29;20046;-80
2021/12/15 04:40:21;;;;;;;33.93;16.23;;;;;;;;;;4818013;29;20057;-78
2021/12/15 04:43:33;;;;;;;38.63;15.57;;;;;;;;;;4831522;29;20069;-79
2021/12/15 04:46:48;;;;;;;40.40;18.08;;;;;;;;;;4845982;29;20056;-78
2021/12/15 04:49:55;;;;;;;44.03;17.37;;;;;;;;;;4840771;29;20052;-77
2021/12/15 04:53:04;;;;;;;39.97;19.30;;;;;;;;;;4834258;29;20054;-77
2021/12/15 04:56:10;;;;;;;41.27;19.13;;;;;;;;;;4835769;29;20062;-77
2021/12/15 04:59:16;;;;;;;37.73;17.63;;;;;;;;;;4838227;29;20057;-78
2021/12/15 05:02:22;;;;;;;23.70;9.23;;;;;;;;;;4835327;29;20050;-78
2021/12/15 05:05:28;;;;;;;33.73;14.53;;;;;;;;;;4823714;29;20042;-77
2021/12/15 05:08:36;;;;;;;27.40;12.50;;;;;;;;;;4831728;29;20053;-78
2021/12/15 05:11:42;;;;;;;25.67;12.63;;;;;;;;;;4831398;29;20523;-78
2021/12/15 05:14:47;;;;;;;28.73;12.47;;;;;;;;;;4820696;29;20054;-77
2021/12/15 05:17:58;;;;;;;31.90;16.70;;;;;;;;;;4842745;29;20054;-77
2021/12/15 05:21:07;;;;;;;24.30;11.73;;;;;;;;;;4831976;29;20057;-77
2021/12/15 05:24:23;;;;;;;23.60;13.47;;;;;;;;;;4826388;29;20046;-76
2021/12/15 05:27:28;;;;;;;21.23;11.00;;;;;;;;;;4819043;29;20057;-77
2021/12/15 05:30:35;;;;;;;30.03;15.17;;;;;;;;;;4847769;29;20515;-79
2021/12/15 05:33:41;;;;;;;28.90;14.47;;;;;;;;;;4857354;29;20041;-77
2021/12/15 05:36:47;;;;;;;25.40;13.30;;;;;;;;;;4862761;29;20053;-77
2021/12/15 05:39:53;;;;;;;26.50;14.10;;;;;;;;;;4828508;29;20509;-78
2021/12/15 05:42:59;;;;;;;15.60;7.67;;;;;;;;;;4815312;29;20066;-80
2021/12/15 05:46:04;;;;;;;23.97;10.67;;;;;;;;;;4805452;29;20053;-78
2021/12/15 05:49:10;;;;;;;20.27;11.13;;;;;;;;;;4821836;29;20050;-78
2021/12/15 05:52:16;;;;;;;17.83;8.90;;;;;;;;;;4824682;29;20057;-77
2021/12/15 05:55:21;;;;;;;17.23;7.97;;;;;;;;;;4833663;29;20049;-79
2021/12/15 05:58:28;;;;;;;23.53;11.33;;;;;;;;;;4823389;29;20058;-77
2021/12/15 06:01:36;;;;;;;25.97;14.67;;;;;;;;;;4834967;29;20045;-78
2021/12/15 06:04:41;;;;;;;21.50;11.47;;;;;;;;;;4823547;29;20527;-77
2021/12/15 06:07:46;;;;;;;24.80;12.93;;;;;;;;;;4825291;29;20069;-78
2021/12/15 06:10:52;;;;;;;13.47;7.17;;;;;;;;;;4823871;29;20062;-77
2021/12/15 06:13:57;;;;;;;21.70;9.37;;;;;;;;;;4823819;29;20069;-77
2021/12/15 06:17:07;;;;;;;19.67;10.30;;;;;;;;;;4825614;29;20057;-77
2021/12/15 06:20:13;;;;;;;21.13;10.33;;;;;;;;;;4809400;29;20046;-78
2021/12/15 06:23:20;;;;;;;19.77;8.73;;;;;;;;;;4808464;29;20058;-78
2021/12/15 06:26:25;;;;;;;11.33;5.47;;;;;;;;;;4817361;29;20057;-76
2021/12/15 06:29:32;;;;;;;14.80;8.57;;;;;;;;;;4834442;29;20518;-76
2021/12/15 06:32:38;;;;;;;23.07;11.80;;;;;;;;;;4835001;29;20420;-77
2021/12/15 06:35:53;;;;;;;23.60;13.90;;;;;;;;;;4834891;29;20050;-83
2021/12/15 06:39:30;;;;;;;25.40;12.50;;;;;;;;;;4877178;29;20057;-81
2021/12/15 06:42:42;;;;;;;11.73;6.07;;;;;;;;;;4838861;29;20054;-82
2021/12/15 06:59:41;;;;;;;15.03;7.63;;;;;;;;;;4866664;29;20054;-83
2021/12/15 07:02:57;;;;;;;12.70;8.33;;;;;;;;;;4862412;29;20054;-80
2021/12/15 07:06:08;;;;;;;14.77;8.83;;;;;;;;;;4834144;29;20061;-79
2021/12/15 07:09:18;;;;;;;12.80;7.23;;;;;;;;;;4850190;29;20042;-81
2021/12/15 07:12:27;;;;;;;9.23;5.40;;;;;;;;;;4814467;29;20061;-80
2021/12/15 07:15:37;;;;;;;13.80;6.03;;;;;;;;;;4820229;29;20056;-80
2021/12/15 07:19:04;;;;;;;7.00;3.57;;;;;;;;;;4831148;29;20046;-80
2021/12/15 07:22:31;;;;;;;13.30;8.00;;;;;;;;;;4824416;29;20058;-80
2021/12/15 07:29:20;;;;;;;9.73;6.37;;;;;;;;;;4830715;29;20050;-79
2021/12/15 07:32:27;;;;;;;9.60;4.47;;;;;;;;;;4840350;29;20062;-80
2021/12/15 07:35:36;;;;;;;14.93;8.50;;;;;;;;;;4829839;29;20058;-81
2021/12/15 07:38:44;;;;;;;10.43;6.03;;;;;;;;;;4848584;29;20045;-80
2021/12/15 07:42:02;;;;;;;15.43;9.27;;;;;;;;;;4842872;29;20050;-82
2021/12/15 07:45:12;;;;;;;17.30;9.97;;;;;;;;;;4877579;29;20065;-79
2021/12/15 07:48:22;;;;;;;27.43;16.63;;;;;;;;;;4874885;29;20053;-81
2021/12/15 07:51:32;;;;;;;21.93;13.27;;;;;;;;;;4874202;29;20067;-80
2021/12/15 07:54:40;;;;;;;22.10;12.13;;;;;;;;;;4876341;29;20071;-81
2021/12/15 07:57:57;;;;;;;19.57;10.77;;;;;;;;;;4875174;29;20044;-81
2021/12/15 08:01:06;;;;;;;19.27;10.70;;;;;;;;;;4872176;29;20051;-83
2021/12/15 08:04:13;;;;;;;24.07;12.17;;;;;;;;;;4870086;29;20038;-82
2021/12/15 08:07:20;;;;;;;19.87;12.43;;;;;;;;;;4881366;29;20053;-81
2021/12/15 08:10:27;;;;;;;23.70;12.43;;;;;;;;;;4847798;29;20490;-81
2021/12/15 08:13:36;;;;;;;22.20;12.17;;;;;;;;;;4849009;29;20057;-83
2021/12/15 08:16:43;;;;;;;24.93;13.60;;;;;;;;;;4845898;29;20057;-83
2021/12/15 08:19:52;;;;;;;27.77;14.70;;;;;;;;;;4836561;29;20042;-82
2021/12/15 08:23:00;;;;;;;20.43;11.83;;;;;;;;;;4847177;29;20065;-80
2021/12/15 08:26:07;;;;;;;26.93;15.37;;;;;;;;;;4835920;29;20053;-81
2021/12/15 08:29:17;;;;;;;27.80;11.80;;;;;;;;;;4817415;29;20054;-83
2021/12/15 08:32:28;;;;;;;28.07;15.33;;;;;;;;;;4842339;29;20049;-81
2021/12/15 08:35:41;;;;;;;35.10;17.50;;;;;;;;;;4832508;29;20054;-82
2021/12/15 08:38:54;;;;;;;29.93;17.47;;;;;;;;;;4851384;29;20058;-80
2021/12/15 08:42:04;;;;;;;33.53;17.53;;;;;;;;;;4840374;29;20041;-81
2021/12/15 08:45:14;;;;;;;17.87;9.17;;;;;;;;;;4836613;29;20056;-82
2021/12/15 08:48:21;;;;;;;18.83;8.30;;;;;;;;;;4836499;29;20038;-83
2021/12/15 08:51:34;;;;;;;22.27;11.43;;;;;;;;;;4832598;29;20053;-82
2021/12/15 08:54:43;;;;;;;35.70;19.05;;;;;;;;;;4842943;29;20064;-82
2021/12/15 08:57:54;;;;;;;39.80;21.93;;;;;;;;;;4869909;29;20049;-82
2021/12/15 09:01:01;;;;;;;40.47;20.40;;;;;;;;;;4863308;29;20049;-82
2021/12/15 09:04:08;;;;;;;35.40;18.10;;;;;;;;;;4863771;29;20045;-82
2021/12/15 09:07:16;;;;;;;26.67;13.73;;;;;;;;;;4851373;29;20045;-82
2021/12/15 09:10:24;;;;;;;29.23;13.07;;;;;;;;;;4871035;29;20075;-82
2021/12/15 09:13:36;;;;;;;42.53;24.23;;;;;;;;;;4852479;29;20057;-81
2021/12/15 09:16:46;;;;;;;41.50;22.13;;;;;;;;;;4871670;29;20057;-81
2021/12/15 09:19:55;;;;;;;45.03;18.80;;;;;;;;;;4841300;29;20045;-81
2021/12/15 09:23:03;;;;;;;29.43;14.43;;;;;;;;;;4847556;29;20052;-82
2021/12/15 09:26:10;;;;;;;48.00;23.87;;;;;;;;;;4845562;29;20062;-81
2021/12/15 09:29:19;;;;;;;48.43;23.83;;;;;;;;;;4866287;29;20061;-82
2021/12/15 09:32:29;;;;;;;40.37;20.53;;;;;;;;;;4865150;29;20041;-81
2021/12/15 09:35:37;;;;;;;27.67;14.17;;;;;;;;;;4879925;29;20049;-82
2021/12/15 09:38:45;;;;;;;29.37;13.93;;;;;;;;;;4873481;29;20507;-81
2021/12/15 09:41:53;;;;;;;31.73;16.03;;;;;;;;;;4847361;29;20059;-80
2021/12/15 09:45:15;;;;;;;38.50;20.80;;;;;;;;;;4829087;29;20054;-79
2021/12/15 10:02:48;;;;;;;28.97;14.03;;;;;;;;;;4853726;29;20040;-80
2021/12/15 10:20:04;;;;;;;20.27;8.55;;;;;;;;;;4875079;29;20057;-81
2021/12/15 10:23:29;;;;;;;24.10;12.50;;;;;;;;;;4875503;29;20049;-82
2021/12/15 10:26:37;;;;;;;38.77;19.60;;;;;;;;;;4870969;29;20401;-80
2021/12/15 10:29:56;;;;;;;37.57;21.90;;;;;;;;;;4845022;29;20057;-80
2021/12/15 10:33:12;;;;;;;35.97;17.80;;;;;;;;;;4846504;29;20060;-82
2021/12/15 10:36:23;;;;;;;38.17;22.30;;;;;;;;;;4836658;29;20049;-82
2021/12/15 10:39:29;;;;;;;47.00;23.23;;;;;;;;;;4861082;29;20041;-80
2021/12/15 10:42:36;;;;;;;40.57;23.57;;;;;;;;;;4844113;29;20069;-82
2021/12/15 10:45:45;;;;;;;31.30;15.77;;;;;;;;;;4852080;29;20055;-80
2021/12/15 10:48:53;;;;;;;47.90;24.17;;;;;;;;;;4836354;29;20050;-80
2021/12/15 10:52:09;;;;;;;49.33;25.03;;;;;;;;;;4835213;29;20057;-79
2021/12/15 10:55:18;;;;;;;40.33;23.87;;;;;;;;;;4834689;29;20061;-81
2021/12/15 10:58:43;;;;;;;25.30;9.88;;;;;;;;;;4835242;29;20050;-80
2021/12/15 11:02:05;;;;;;;30.93;12.73;;;;;;;;;;4835264;29;20057;-81
2021/12/15 11:05:16;;;;;;;37.23;19.27;;;;;;;;;;4823801;29;20148;-80
2021/12/15 11:08:25;;;;;;;30.37;14.90;;;;;;;;;;4837708;29;20066;-79
2021/12/15 11:11:33;;;;;;;29.57;16.30;;;;;;;;;;4843214;29;20061;-81
2021/12/15 11:14:40;;;;;;;34.67;17.37;;;;;;;;;;4836095;29;20054;-80
2021/12/15 11:17:49;;;;;;;28.77;15.10;;;;;;;;;;4846056;29;20052;-80
2021/12/15 11:21:01;;;;;;;;;;;;;;;;;;4828191;29;20077;-80
2021/12/15 11:24:36;;;;;;;23.27;13.80;;;;;;;;;;4848485;29;19927;-80
2021/12/15 11:27:49;;;;;;;20.50;11.57;;;;;;;;;;4837670;29;20061;-79
2021/12/15 11:31:06;;;;;;;27.57;15.33;;;;;;;;;;4848145;29;20060;-80
2021/12/15 11:34:18;;;;;;;20.63;10.40;;;;;;;;;;4847346;29;20057;-81
2021/12/15 11:38:00;;;;;;;;;;;;;;;;;;;;;
2021/12/15 11:41:43;;;;;;;24.23;16.13;;;;;;;;;;4852689;29;20050;-81
2021/12/15 11:45:03;;;;;;;26.15;15.10;;;;;;;;;;4837739;29;20073;-80
2021/12/15 11:48:13;;;;;;;22.87;14.00;;;;;;;;;;4819167;29;20053;-78
2021/12/15 11:51:30;;;;;;;27.03;16.00;;;;;;;;;;4837203;29;20054;-80
2021/12/15 11:54:37;;;;;;;24.13;13.23;;;;;;;;;;4829630;29;20072;-79
2021/12/15 11:57:56;;;;;;;27.90;15.10;;;;;;;;;;4826858;29;20076;-79
2021/12/15 12:01:30;;;;;;;21.50;12.63;;;;;;;;;;4839541;29;20530;-81
2021/12/15 12:04:56;;;;;;;;;;;;;;;;;;;;;
2021/12/15 12:08:36;;;;;;;23.93;14.00;;;;;;;;;;4861103;29;20053;-81
2021/12/15 12:11:58;;;;;;;29.90;17.77;;;;;;;;;;4844793;29;20068;-80
2021/12/15 12:15:27;;;;;;;20.60;11.27;;;;;;;;;;4853305;29;20042;-81
2021/12/15 12:18:37;;;;;;;21.97;11.93;;;;;;;;;;4833039;29;20168;-80
2021/12/15 12:21:44;;;;;;;24.10;12.97;;;;;;;;;;4826101;29;20050;-80
2021/12/15 12:25:07;;;;;;;25.20;14.40;;;;;;;;;;4840049;29;20057;-80
2021/12/15 12:28:27;;;;;;;20.67;11.77;;;;;;;;;;4841223;29;20037;-80
2021/12/15 12:31:44;;;;;;;14.40;8.90;;;;;;;;;;4871900;29;20396;-81
2021/12/15 12:35:31;;;;;;;16.02;8.02;;;;;;;;;;4855246;29;20060;-82
2021/12/15 12:38:55;;;;;;;17.80;9.40;;;;;;;;;;4835909;29;20054;-80
2021/12/15 12:42:04;;;;;;;;;;;;;;;;;;4836529;29;20057;-81
2021/12/15 12:45:29;;;;;;;20.27;11.00;;;;;;;;;;4827906;29;19987;-81
2021/12/15 12:59:51;;;;;;;29.10;18.37;;;;;;;;;;4854383;29;20041;-79
2021/12/15 13:03:07;;;;;;;20.27;13.43;;;;;;;;;;4841257;29;20046;-79
2021/12/15 13:06:15;;;;;;;19.80;13.33;;;;;;;;;;4832031;29;20057;-80
2021/12/15 13:09:20;;;;;;;10.87;6.60;;;;;;;;;;4830127;29;20046;-80
2021/12/15 13:12:28;;;;;;;14.63;10.10;;;;;;;;;;4827396;29;20062;-79
2021/12/15 13:15:37;;;;;;;20.93;13.00;;;;;;;;;;4828017;29;20416;-79
2021/12/15 13:18:57;;;;;;;19.63;11.17;;;;;;;;;;4829602;29;20057;-81
2021/12/15 13:28:50;;;;;;;23.13;12.17;;;;;;;;;;4835681;29;20042;-80
2021/12/15 13:32:02;;;;;;;19.63;10.80;;;;;;;;;;4817757;29;20087;-79
2021/12/15 13:35:36;;;;;;;18.23;9.90;;;;;;;;;;4823310;29;20046;-81
2021/12/15 13:39:00;;;;;;;20.83;13.10;;;;;;;;;;4833607;29;20042;-80
2021/12/15 13:43:01;;;;;;;23.13;12.70;;;;;;;;;;4840266;29;20045;-79
2021/12/15 13:46:31;;;;;;;21.80;14.17;;;;;;;;;;4842545;29;20054;-81
2021/12/15 13:49:50;;;;;;;22.60;14.73;;;;;;;;;;4837938;29;20056;-80
2021/12/15 13:53:03;;;;;;;28.07;16.27;;;;;;;;;;4847214;29;20438;-80
2021/12/15 13:56:40;;;;;;;27.95;13.05;;;;;;;;;;4834311;29;20045;-80
2021/12/15 14:00:16;;;;;;;24.63;15.90;;;;;;;;;;4868701;24;20400;-81
2021/12/15 14:03:47;;;;;;;21.03;12.50;;;;;;;;;;4878498;29;20045;-81
2021/12/15 14:06:54;;;;;;;17.60;10.77;;;;;;;;;;4864135;29;20407;-79
2021/12/15 14:10:02;;;;;;;19.17;11.00;;;;;;;;;;4865518;29;20423;-79
2021/12/15 14:13:11;;;;;;;23.87;14.63;;;;;;;;;;4873393;29;20061;-79
2021/12/15 14:16:38;;;;;;;20.47;13.47;;;;;;;;;;4856138;29;20065;-77
2021/12/15 14:19:45;;;;;;;27.87;19.13;;;;;;;;;;4859745;29;20017;-80
2021/12/15 14:22:59;;;;;;;24.93;14.10;;;;;;;;;;4856538;29;20057;-79
2021/12/15 14:26:11;;;;;;;17.03;11.37;;;;;;;;;;4834037;29;20057;-78
2021/12/15 14:29:20;;;;;;;18.70;12.63;;;;;;;;;;4813627;29;20073;-79
2021/12/15 14:32:27;;;;;;;22.37;13.80;;;;;;;;;;4836996;29;20486;-81
2021/12/15 14:35:33;;;;;;;21.10;12.53;;;;;;;;;;4843015;29;20057;-78
2021/12/15 14:38:43;;;;;;;21.33;14.93;;;;;;;;;;4830364;29;20080;-79
2021/12/15 14:42:00;;;;;;;19.33;12.70;;;;;;;;;;4844248;29;20054;-79
2021/12/15 14:45:10;;;;;;;16.50;9.33;;;;;;;;;;4827345;29;20058;-80
2021/12/15 14:48:18;;;;;;;27.50;16.70;;;;;;;;;;4825887;29;20061;-80
2021/12/15 14:51:24;;;;;;;27.23;16.90;;;;;;;;;;4820135;29;20567;-79
2021/12/15 14:54:33;;;;;;;19.10;10.90;;;;;;;;;;4904242;23;20065;-80
2021/12/15 14:57:45;;;;;;;15.73;10.13;;;;;;;;;;4868495;29;20061;-78
2021/12/15 15:00:55;;;;;;;18.97;12.33;;;;;;;;;;4856316;29;20045;-83
2021/12/15 15:04:25;;;;;;;18.47;9.97;;;;;;;;;;4853063;29;20056;-81
2021/12/15 15:07:37;;;;;;;10.10;5.97;;;;;;;;;;4872587;29;20049;-82
2021/12/15 15:11:16;;;;;;;11.77;6.87;;;;;;;;;;4861812;29;20029;-82
2021/12/15 15:14:36;;;;;;;25.03;13.80;;;;;;;;;;4865144;29;20050;-83
2021/12/15 15:17:55;;;;;;;28.90;16.80;;;;;;;;;;4863833;29;20061;-82
2021/12/15 15:21:04;;;;;;;29.17;17.55;;;;;;;;;;4853197;29;20046;-81
2021/12/15 15:24:28;;;;;;;28.17;16.60;;;;;;;;;;4843797;29;20034;-79
2021/12/15 15:27:59;;;;;;;17.52;7.03;;;;;;;;;;4854516;29;20042;-83
2021/12/15 15:31:19;;;;;;;29.10;18.50;;;;;;;;;;4857396;29;20054;-83
2021/12/15 15:34:31;;;;;;;30.93;18.57;;;;;;;;;;4855532;29;20046;-82
2021/12/15 15:37:46;;;;;;;25.73;15.73;;;;;;;;;;4856615;29;20057;-83
2021/12/15 15:41:00;;;;;;;31.90;18.23;;;;;;;;;;4856325;29;20034;-83
2021/12/15 15:44:24;;;;;;;34.63;17.97;;;;;;;;;;4866098;29;20038;-83
2021/12/15 15:51:45;;;;;;;33.73;17.67;;;;;;;;;;4884621;29;20053;-83
2021/12/15 16:43:54;;;;;;;34.43;20.20;;;;;;;;;;4860256;29;20065;-80
2021/12/15 16:47:11;;;;;;;28.37;17.77;;;;;;;;;;4850198;29;20086;-80
2021/12/15 16:50:51;;;;;;;31.70;14.70;;;;;;;;;;4850958;29;20042;-79
2021/12/15 16:54:42;;;;;;;34.83;22.33;;;;;;;;;;4843511;29;20060;-80
2021/12/15 17:17:39;;;;;;;17.40;10.83;;;;;;;;;;4839818;29;20080;-80
2021/12/15 17:30:54;;;;;;;22.03;14.73;;;;;;;;;;4848273;29;20412;-80
2021/12/15 17:34:06;;;;;;;24.67;17.27;;;;;;;;;;4838028;29;20063;-79
2021/12/15 17:37:28;;;;;;;33.07;18.00;;;;;;;;;;4813011;29;20053;-80
2021/12/15 17:41:00;;;;;;;27.85;18.35;;;;;;;;;;4845428;29;20042;-83
2021/12/15 18:29:27;;;;;;;21.43;16.90;;;;;;;;;;5109449;27;20649;-75
2021/12/15 18:32:33;;;;;;;18.17;15.83;;;;;;;;;;5097471;28;20035;-74
2021/12/15 18:35:38;;;;;;;18.53;15.13;;;;;;;;;;5087042;28;20036;-75
2021/12/15 18:38:44;;;;;;;15.90;14.20;;;;;;;;;;5084337;28;20039;-78
2021/12/15 18:41:51;;;;;;;17.70;13.67;;;;;;;;;;5085366;28;20043;-75
2021/12/15 18:44:58;;;;;;;15.63;12.57;;;;;;;;;;5086250;28;20151;-72
2021/12/15 18:48:04;;;;;;;17.57;14.77;;;;;;;;;;5077056;28;20056;-73
2021/12/15 18:51:10;;;;;;;15.57;13.43;;;;;;;;;;5084370;28;20031;-73
2021/12/15 18:54:16;;;;;;;13.77;12.30;;;;;;;;;;5082965;28;20040;-74
2021/12/15 18:57:21;;;;;;;12.77;11.17;;;;;;;;;;5085359;28;20042;-74
2021/12/15 19:00:29;;;;;;;13.03;10.23;;;;;;;;;;5103456;28;20050;-74
2021/12/15 19:03:34;;;;;;;11.77;10.57;;;;;;;;;;5085122;28;20044;-71
2021/12/15 19:06:41;;;;;;;11.10;9.83;;;;;;;;;;5083922;28;20051;-73
2021/12/15 19:09:48;;;;;;;12.70;11.23;;;;;;;;;;5102887;28;20056;-73
2021/12/15 19:12:59;;;;;;;14.67;12.13;;;;;;;;;;5080714;28;20067;-73
2021/12/15 19:16:06;;;;;;;15.63;12.03;;;;;;;;;;5076341;28;20036;-72
2021/12/15 19:19:12;;;;;;;20.40;14.07;;;;;;;;;;5081939;28;20039;-73
2021/12/15 19:22:19;;;;;;;13.40;12.00;;;;;;;;;;5083749;28;20052;-72
2021/12/15 19:25:24;;;;;;;13.83;12.07;;;;;;;;;;5092674;28;20036;-73
2021/12/15 19:28:30;;;;;;;12.40;9.57;;;;;;;;;;5082341;28;20059;-74
2021/12/15 19:31:35;;;;;;;14.27;10.83;;;;;;;;;;5087774;28;20040;-74
2021/12/15 19:34:40;;;;;;;12.57;9.07;;;;;;;;;;5077013;28;20040;-74
2021/12/15 19:37:47;;;;;;;13.10;9.53;;;;;;;;;;5088545;28;20447;-72
2021/12/15 19:40:54;;;;;;;11.53;10.27;;;;;;;;;;5065845;28;20047;-72
2021/12/15 19:44:01;;;;;;;11.90;9.67;;;;;;;;;;5051889;28;20052;-75
2021/12/15 19:47:09;;;;;;;9.93;8.57;;;;;;;;;;5064294;28;20050;-75
2021/12/15 19:50:16;;;;;;;11.53;8.27;;;;;;;;;;5089820;27;20058;-71
2021/12/15 19:53:23;;;;;;;14.13;10.60;;;;;;;;;;5122159;27;20047;-76
2021/12/15 19:56:28;;;;;;;12.90;10.20;;;;;;;;;;5104153;27;20050;-76
2021/12/15 19:59:34;;;;;;;10.87;8.33;;;;;;;;;;5112934;27;20496;-71
2021/12/15 20:02:42;;;;;;;11.97;8.90;;;;;;;;;;5092182;28;20499;-74
2021/12/15 20:05:49;;;;;;;10.57;7.07;;;;;;;;;;5117992;27;20042;-75
2021/12/15 20:10:37;;;;;;;13.00;7.83;;;;;;;;;;5105264;27;132751;-76
2021/12/15 20:13:43;;;;;;;10.23;8.83;;;;;;;;;;5060368;28;316226;-77
2021/12/15 20:16:55;;;;;;;13.67;9.30;;;;;;;;;;5083723;28;20051;-77
2021/12/15 20:20:03;;;;;;;8.90;8.00;;;;;;;;;;5072863;28;20051;-77
2021/12/15 20:23:11;;;;;;;10.03;8.33;;;;;;;;;;5068650;28;20501;-77
2021/12/15 20:26:18;;;;;;;10.47;8.23;;;;;;;;;;5059105;28;20059;-77
2021/12/15 20:29:25;;;;;;;10.10;8.20;;;;;;;;;;5076752;28;20044;-77
2021/12/15 20:32:31;;;;;;;9.83;8.17;;;;;;;;;;5039426;28;20048;-77
2021/12/15 20:35:37;;;;;;;8.63;7.13;;;;;;;;;;5053186;28;20047;-75
2021/12/15 20:38:44;;;;;;;9.63;7.30;;;;;;;;;;5062268;28;20039;-75
2021/12/15 20:41:50;;;;;;;8.63;6.90;;;;;;;;;;5071443;28;20047;-79
2021/12/15 20:44:57;;;;;;;9.83;7.87;;;;;;;;;;5051742;28;20508;-74
2021/12/15 20:48:03;;;;;;;10.33;8.30;;;;;;;;;;5070576;28;20037;-75
2021/12/15 20:51:11;;;;;;;12.10;8.77;;;;;;;;;;5064143;28;20059;-75
2021/12/15 20:54:18;;;;;;;9.30;8.17;;;;;;;;;;5062461;28;20515;-75
2021/12/15 20:57:24;;;;;;;5.00;4.20;;;;;;;;;;5048527;28;20043;-74
2021/12/15 21:00:32;;;;;;;8.03;6.23;;;;;;;;;;5048510;28;20049;-75
2021/12/15 21:03:38;;;;;;;11.37;8.70;;;;;;;;;;5059181;28;20051;-72
2021/12/15 21:06:46;;;;;;;12.67;8.43;;;;;;;;;;5064741;28;20048;-73
2021/12/15 21:09:56;;;;;;;9.97;7.40;;;;;;;;;;5047401;28;20067;-72
2021/12/15 21:13:02;;;;;;;7.40;6.10;;;;;;;;;;5060476;28;20531;-72
2021/12/15 21:16:09;;;;;;;9.90;7.57;;;;;;;;;;5051344;28;20051;-74
2021/12/15 21:19:18;;;;;;;7.17;6.17;;;;;;;;;;5073309;28;20040;-71
2021/12/15 21:22:24;;;;;;;8.63;7.60;;;;;;;;;;5039893;28;20052;-71
2021/12/15 21:25:32;;;;;;;13.60;8.50;;;;;;;;;;5047169;28;20040;-72
2021/12/15 21:28:40;;;;;;;9.40;7.60;;;;;;;;;;5042890;28;20047;-72
2021/12/15 21:31:46;;;;;;;8.90;6.80;;;;;;;;;;5052980;28;20051;-72
2021/12/15 21:34:53;;;;;;;7.77;6.30;;;;;;;;;;5051761;28;20055;-72
2021/12/15 21:37:59;;;;;;;5.17;4.60;;;;;;;;;;5058979;28;20052;-72
2021/12/15 21:41:07;;;;;;;8.97;6.70;;;;;;;;;;5040268;28;20052;-72
2021/12/15 21:44:12;;;;;;;7.73;6.27;;;;;;;;;;5049240;28;20040;-72
2021/12/15 21:47:19;;;;;;;6.53;4.90;;;;;;;;;;5061834;28;20036;-73
2021/12/15 21:50:25;;;;;;;7.63;6.70;;;;;;;;;;5039954;28;20055;-70
2021/12/15 21:53:32;;;;;;;6.80;4.77;;;;;;;;;;5062029;28;20052;-70
2021/12/15 21:56:39;;;;;;;7.43;6.30;;;;;;;;;;5060249;28;20040;-70
2021/12/15 21:59:45;;;;;;;8.63;6.30;;;;;;;;;;5051237;28;20041;-71
2021/12/15 22:02:52;;;;;;;8.03;6.70;;;;;;;;;;5019928;28;20041;-68
2021/12/15 22:05:58;;;;;;;7.60;6.47;;;;;;;;;;5042065;28;20044;-69
2021/12/15 22:09:07;;;;;;;7.20;6.20;;;;;;;;;;5041332;28;20045;-67
2021/12/15 22:12:13;;;;;;;7.80;6.47;;;;;;;;;;5034281;28;20064;-69
2021/12/15 22:15:25;;;;;;;9.90;6.63;;;;;;;;;;5042865;28;20056;-70
2021/12/15 22:18:35;;;;;;;7.30;6.50;;;;;;;;;;5052944;28;20425;-70
2021/12/15 22:21:43;;;;;;;8.00;6.20;;;;;;;;;;5055746;28;20051;-72
2021/12/15 22:24:50;;;;;;;5.63;4.67;;;;;;;;;;5047103;28;20053;-72
2021/12/15 22:27:57;;;;;;;5.90;4.97;;;;;;;;;;5071526;28;20463;-71
2021/12/15 22:31:03;;;;;;;7.80;4.73;;;;;;;;;;5025717;28;20052;-71
2021/12/15 22:34:11;;;;;;;5.87;3.90;;;;;;;;;;5022383;28;20045;-70
2021/12/15 22:37:18;;;;;;;5.67;4.40;;;;;;;;;;5038829;28;20037;-70
2021/12/15 22:40:25;;;;;;;6.03;4.10;;;;;;;;;;5060903;28;20036;-72
2021/12/15 22:43:32;;;;;;;5.53;4.40;;;;;;;;;;5060945;28;20044;-71
2021/12/15 22:46:38;;;;;;;6.13;5.00;;;;;;;;;;5030668;28;20052;-70
2021/12/15 22:49:46;;;;;;;6.00;4.77;;;;;;;;;;5020232;28;20063;-69
2021/12/15 22:52:52;;;;;;;5.97;4.40;;;;;;;;;;5030532;28;20067;-70
2021/12/15 22:55:58;;;;;;;6.97;4.67;;;;;;;;;;5032236;28;20064;-69
2021/12/15 22:59:06;;;;;;;6.60;5.10;;;;;;;;;;5050423;28;20033;-70
2021/12/15 23:02:14;;;;;;;6.03;4.03;;;;;;;;;;5055562;28;20511;-71
2021/12/15 23:05:21;;;;;;;8.23;6.23;;;;;;;;;;5050022;28;20048;-68
2021/12/15 23:08:30;;;;;;;7.50;5.23;;;;;;;;;;5041184;28;20520;-69
2021/12/15 23:11:53;;;;;;;9.37;6.70;;;;;;;;;;5032662;28;20059;-69
2021/12/15 23:15:01;;;;;;;8.85;6.95;;;;;;;;;;5041841;28;20041;-69
2021/12/15 23:18:09;;;;;;;7.63;6.10;;;;;;;;;;5054208;28;20051;-68
2021/12/15 23:21:16;;;;;;;6.20;4.80;;;;;;;;;;5058668;28;20044;-68
2021/12/15 23:24:22;;;;;;;9.73;7.33;;;;;;;;;;5043960;28;20048;-71
2021/12/15 23:27:29;;;;;;;9.53;6.20;;;;;;;;;;5035401;28;20047;-71
2021/12/15 23:30:35;;;;;;;10.20;7.10;;;;;;;;;;5058387;28;20052;-71
2021/12/15 23:33:41;;;;;;;11.77;8.47;;;;;;;;;;5048834;28;20085;-70
2021/12/15 23:36:48;;;;;;;11.30;8.10;;;;;;;;;;5044207;28;20482;-71
2021/12/15 23:40:29;;;;;;;8.47;5.43;;;;;;;;;;5042236;28;20132;-71
